Terminal Aerodrome Forecast
Issued by NWS

Home | Current Version | Previous Version | Graphics & Text | Print | Product List | Glossary On
Versions: 1 2 3 4 5 6 7 8 9 10 11 12 13 14 15 16 17 18 19 20 21 22 23 24 25 26 27
000
FTUS43 KLOT 271145
TAFDPA
TAF
KDPA 271145Z 2712/2812 05005KT 6SM BR SCT005 SCT025
      TEMPO 2712/2714 5SM BR BKN005
     FM271500 08006KT P6SM FEW005 SCT025 SCT150
     FM271900 08010KT P6SM FEW040 BKN250
     FM280200 10005KT P6SM SCT080 BKN200
     FM280900 08005KT 6SM SHRA OVC030 PROB30 2809/2811 4SM TSRA
      OVC015CB=

USA.gov is the U.S. government's official web portal to all federal, state and local government web resources and services.